Time;durP1;ratioP1;P1;durP2;ratioP2;P2;SDS_P1;SDS_P2;PMS_P1;PMS_P2;Temp;Humidity;BMP_temperature;BMP_pressure;BME280_temperature;BME280_humidity;BME280_pressure;Samples;Min_cycle;Max_cycle;Signal;HPM_P1;HPM_P2
2023/09/24 00:02:19;;;;;;;2.80;1.45;;;19.80;64.00;;;;;;4995587;28;20030;-53
2023/09/24 00:04:45;;;;;;;5.28;1.33;;;19.80;64.00;;;;;;4994274;28;20030;-53
2023/09/24 00:07:12;;;;;;;1.90;1.20;;;19.80;64.00;;;;;;4996752;28;20046;-59
2023/09/24 00:09:38;;;;;;;2.30;1.50;;;19.80;64.00;;;;;;4991782;28;20030;-52
2023/09/24 00:12:04;;;;;;;3.53;1.63;;;19.80;64.30;;;;;;4994964;28;20023;-55
2023/09/24 00:14:30;;;;;;;2.92;1.30;;;19.80;64.00;;;;;;4974840;28;20070;-53
2023/09/24 00:16:56;;;;;;;2.20;1.20;;;19.80;64.10;;;;;;4995284;28;20444;-54
2023/09/24 00:19:22;;;;;;;1.77;1.20;;;19.80;64.30;;;;;;4981618;28;20407;-54
2023/09/24 00:21:47;;;;;;;3.30;1.42;;;19.80;64.20;;;;;;4995813;28;20034;-53
2023/09/24 00:24:17;;;;;;;2.08;1.20;;;19.80;64.00;;;;;;4997874;28;20068;-57
2023/09/24 00:26:46;;;;;;;1.70;1.20;;;19.70;64.10;;;;;;4998469;28;20038;-55
2023/09/24 00:29:12;;;;;;;1.83;1.40;;;19.80;64.00;;;;;;4997689;28;20045;-55
2023/09/24 00:31:38;;;;;;;1.67;0.98;;;19.70;64.20;;;;;;4980378;28;20026;-50
2023/09/24 00:34:04;;;;;;;4.47;1.30;;;19.80;64.30;;;;;;5003061;28;20037;-55
2023/09/24 00:36:29;;;;;;;2.50;1.60;;;19.70;64.20;;;;;;4997336;28;20195;-53
2023/09/24 00:38:55;;;;;;;1.52;1.25;;;19.70;64.10;;;;;;4980174;28;20518;-55
2023/09/24 00:41:20;;;;;;;2.13;1.52;;;19.70;64.10;;;;;;4994498;28;20033;-53
2023/09/24 00:43:46;;;;;;;3.13;1.23;;;19.70;64.20;;;;;;4998611;28;20233;-53
2023/09/24 00:46:12;;;;;;;3.38;1.60;;;19.70;64.30;;;;;;4995869;28;20033;-53
2023/09/24 00:48:38;;;;;;;1.50;1.20;;;19.70;64.00;;;;;;4997348;28;20037;-55
2023/09/24 00:51:19;;;;;;;2.05;1.45;;;19.70;64.10;;;;;;4998790;28;20033;-55
2023/09/24 00:53:46;;;;;;;2.88;1.40;;;19.70;64.30;;;;;;5000035;28;20046;-54
2023/09/24 00:56:12;;;;;;;1.60;1.20;;;19.70;64.20;;;;;;5000178;28;20597;-57
2023/09/24 00:58:39;;;;;;;1.83;1.25;;;19.70;64.20;;;;;;4971626;28;20037;-52
2023/09/24 01:01:05;;;;;;;2.90;1.20;;;19.70;64.40;;;;;;4998541;28;20081;-55
2023/09/24 01:03:31;;;;;;;2.40;1.50;;;19.70;64.20;;;;;;4996633;28;20062;-56
2023/09/24 01:05:57;;;;;;;2.17;1.48;;;19.70;64.10;;;;;;4978194;28;20104;-50
2023/09/24 01:08:24;;;;;;;2.40;1.30;;;19.70;64.30;;;;;;4998638;28;20029;-52
2023/09/24 01:10:50;;;;;;;1.48;1.00;;;19.60;64.00;;;;;;4997641;28;20723;-53
2023/09/24 01:13:20;;;;;;;2.47;1.60;;;19.60;64.00;;;;;;4996208;28;20406;-55
2023/09/24 01:15:48;;;;;;;1.67;1.20;;;19.60;64.20;;;;;;4997333;28;20049;-54
2023/09/24 01:18:14;;;;;;;2.15;1.20;;;19.60;64.30;;;;;;4978550;28;20618;-55
2023/09/24 01:20:41;;;;;;;1.58;1.10;;;19.60;64.40;;;;;;4997067;28;20125;-52
2023/09/24 01:23:11;;;;;;;1.80;1.40;;;19.70;64.30;;;;;;4996896;28;20034;-54
2023/09/24 01:25:37;;;;;;;1.67;1.00;;;19.60;64.10;;;;;;4998430;28;20037;-54
2023/09/24 01:28:04;;;;;;;2.33;1.25;;;19.60;64.30;;;;;;4997735;28;20080;-54
2023/09/24 01:30:31;;;;;;;2.58;1.30;;;19.60;64.10;;;;;;4998902;28;20085;-51
2023/09/24 01:32:57;;;;;;;1.65;1.25;;;19.60;64.40;;;;;;4993286;28;20026;-58
2023/09/24 01:35:27;;;;;;;1.80;1.27;;;19.60;64.40;;;;;;4998182;28;20026;-50
2023/09/24 01:37:59;;;;;;;1.40;1.00;;;19.60;64.50;;;;;;4999235;28;20507;-55
2023/09/24 01:40:27;;;;;;;3.55;1.25;;;19.60;65.10;;;;;;4999314;28;20446;-52
2023/09/24 01:42:57;;;;;;;1.45;1.00;;;19.60;64.60;;;;;;4975855;28;20030;-53
2023/09/24 01:45:24;;;;;;;1.73;1.15;;;19.60;64.40;;;;;;4999598;28;20483;-54
2023/09/24 01:47:50;;;;;;;2.67;1.50;;;19.60;64.50;;;;;;4997172;28;20053;-52
2023/09/24 01:50:16;;;;;;;1.85;1.20;;;19.60;64.50;;;;;;4996889;28;20539;-54
2023/09/24 01:52:43;;;;;;;2.42;1.30;;;19.60;64.30;;;;;;4998634;28;20674;-53
2023/09/24 01:55:08;;;;;;;1.80;1.38;;;19.60;64.50;;;;;;4970265;28;20038;-53
2023/09/24 01:57:34;;;;;;;1.63;1.20;;;19.60;64.40;;;;;;4997796;28;20037;-53
2023/09/24 02:00:21;;;;;;;2.08;1.17;;;19.50;64.50;;;;;;4972888;28;20039;-54
2023/09/24 02:02:45;;;;;;;2.55;1.30;;;19.50;64.30;;;;;;4995105;28;20177;-55
2023/09/24 02:05:11;;;;;;;1.60;1.05;;;19.50;64.40;;;;;;4996120;28;20125;-54
2023/09/24 02:07:40;;;;;;;1.30;1.10;;;19.50;64.20;;;;;;4998055;28;20034;-51
2023/09/24 02:10:06;;;;;;;1.60;1.25;;;19.50;64.40;;;;;;4995863;28;20041;-57
2023/09/24 02:12:38;;;;;;;1.85;1.30;;;19.50;64.50;;;;;;4994625;28;20395;-52
2023/09/24 02:15:12;;;;;;;1.27;0.98;;;19.50;64.40;;;;;;4993233;28;20037;-57
2023/09/24 02:17:41;;;;;;;1.90;1.27;;;19.50;64.40;;;;;;4997194;28;20037;-56
2023/09/24 02:20:18;;;;;;;1.58;1.10;;;19.50;64.50;;;;;;4995972;28;20438;-55
2023/09/24 02:22:50;;;;;;;1.65;1.13;;;19.50;64.50;;;;;;4996161;28;20042;-55
2023/09/24 02:25:18;;;;;;;2.35;1.08;;;19.50;64.50;;;;;;4996376;28;20563;-57
2023/09/24 02:27:44;;;;;;;1.77;1.17;;;19.50;64.50;;;;;;4994532;28;20026;-55
2023/09/24 02:30:11;;;;;;;1.25;0.95;;;19.50;64.50;;;;;;5000733;28;20080;-54
2023/09/24 02:32:40;;;;;;;1.58;1.05;;;19.50;64.60;;;;;;4997807;28;20034;-52
2023/09/24 02:35:11;;;;;;;1.52;1.05;;;19.50;64.40;;;;;;4993377;28;20491;-55
2023/09/24 02:37:38;;;;;;;1.70;1.08;;;19.50;64.40;;;;;;4997939;28;20092;-53
2023/09/24 02:40:10;;;;;;;1.23;1.02;;;19.50;64.40;;;;;;4965505;28;20034;-56
2023/09/24 02:42:35;;;;;;;1.35;1.00;;;19.50;64.40;;;;;;4998568;28;20058;-52
2023/09/24 02:45:01;;;;;;;1.35;1.08;;;19.50;64.50;;;;;;4978612;28;20045;-53
2023/09/24 02:47:27;;;;;;;3.40;1.17;;;19.50;64.60;;;;;;4997378;28;20570;-54
2023/09/24 02:49:53;;;;;;;1.10;0.93;;;19.50;64.60;;;;;;4977019;28;20025;-53
2023/09/24 02:52:19;;;;;;;1.55;1.15;;;19.50;64.50;;;;;;4996605;28;20022;-53
2023/09/24 02:54:45;;;;;;;1.80;1.10;;;19.50;64.60;;;;;;4995792;28;20132;-55
2023/09/24 02:57:11;;;;;;;2.67;1.10;;;19.40;64.30;;;;;;4997096;28;20126;-51
2023/09/24 02:59:36;;;;;;;1.25;0.95;;;19.40;64.40;;;;;;4996603;28;20076;-53
2023/09/24 03:02:02;;;;;;;2.03;1.00;;;19.40;64.30;;;;;;4998560;28;20387;-55
2023/09/24 03:04:28;;;;;;;1.27;0.90;;;19.40;64.30;;;;;;4997380;28;20049;-54
2023/09/24 03:06:53;;;;;;;2.10;1.73;;;19.40;64.50;;;;;;4985655;28;20026;-51
2023/09/24 03:09:19;;;;;;;1.52;1.00;;;19.40;64.70;;;;;;4994339;28;20494;-50
2023/09/24 03:11:44;;;;;;;0.95;0.70;;;19.40;64.40;;;;;;4996157;28;20034;-53
2023/09/24 03:14:10;;;;;;;2.28;1.15;;;19.40;64.40;;;;;;4990025;28;20034;-52
2023/09/24 03:16:35;;;;;;;2.30;1.20;;;19.40;64.60;;;;;;4995273;28;20072;-53
2023/09/24 03:19:01;;;;;;;1.45;0.90;;;19.40;64.50;;;;;;4994264;28;20452;-50
2023/09/24 03:21:27;;;;;;;1.73;1.10;;;19.40;64.50;;;;;;4995259;28;20495;-57
2023/09/24 03:23:53;;;;;;;1.83;0.93;;;19.40;64.70;;;;;;4993657;28;20033;-58
2023/09/24 03:26:19;;;;;;;1.23;0.90;;;19.40;64.60;;;;;;4995675;28;20038;-50
2023/09/24 03:28:45;;;;;;;1.50;0.93;;;19.40;64.40;;;;;;4994176;28;20084;-55
2023/09/24 03:31:15;;;;;;;1.55;0.90;;;19.40;64.40;;;;;;4993567;28;20032;-49
2023/09/24 03:33:41;;;;;;;1.77;1.05;;;19.40;64.40;;;;;;4975339;28;20037;-57
2023/09/24 03:36:08;;;;;;;1.60;1.05;;;19.40;64.60;;;;;;4994527;28;20550;-53
2023/09/24 03:38:34;;;;;;;1.23;1.00;;;19.30;64.40;;;;;;4993900;28;20037;-56
2023/09/24 03:41:02;;;;;;;1.77;1.00;;;19.30;64.40;;;;;;4991428;28;20104;-57
2023/09/24 03:43:27;;;;;;;1.23;0.80;;;19.30;64.40;;;;;;4990936;28;20392;-53
2023/09/24 03:45:53;;;;;;;1.70;0.98;;;19.30;64.30;;;;;;4993709;28;20033;-53
2023/09/24 03:48:19;;;;;;;1.95;1.10;;;19.30;64.40;;;;;;4991384;28;20960;-51
2023/09/24 03:50:45;;;;;;;1.27;1.00;;;19.30;64.50;;;;;;4996540;28;20546;-50
2023/09/24 03:53:11;;;;;;;2.15;1.10;;;19.30;64.40;;;;;;4998610;28;20026;-52
2023/09/24 03:55:37;;;;;;;1.30;1.00;;;19.30;64.50;;;;;;5000732;28;20124;-53
2023/09/24 03:58:05;;;;;;;1.52;0.90;;;19.30;64.30;;;;;;4998083;28;20026;-52
2023/09/24 04:00:31;;;;;;;3.30;1.00;;;19.30;64.40;;;;;;5000607;28;20152;-50
2023/09/24 04:02:57;;;;;;;1.40;0.98;;;19.30;64.60;;;;;;4996370;28;20034;-52
2023/09/24 04:05:23;;;;;;;1.70;0.90;;;19.30;64.40;;;;;;4998031;28;20022;-56
2023/09/24 04:07:50;;;;;;;1.55;1.02;;;19.30;64.40;;;;;;4976914;28;20659;-54
2023/09/24 04:10:20;;;;;;;2.90;1.23;;;19.20;64.40;;;;;;4993919;28;20058;-53
2023/09/24 04:12:49;;;;;;;1.52;0.82;;;19.30;64.60;;;;;;4992368;28;20646;-53
2023/09/24 04:15:18;;;;;;;1.42;1.05;;;19.30;64.50;;;;;;4993970;28;20046;-51
2023/09/24 04:17:45;;;;;;;1.02;0.88;;;19.30;64.60;;;;;;4996424;28;20026;-52
2023/09/24 04:20:15;;;;;;;2.58;0.82;;;19.40;64.80;;;;;;4996374;28;20026;-51
2023/09/24 04:22:44;;;;;;;1.00;0.93;;;19.30;64.50;;;;;;4997607;28;20072;-52
2023/09/24 04:25:22;;;;;;;2.88;1.10;;;19.40;64.60;;;;;;4980490;28;20060;-55
2023/09/24 04:27:49;;;;;;;1.83;1.10;;;19.40;64.50;;;;;;4997201;28;20041;-53
2023/09/24 04:30:17;;;;;;;1.70;0.90;;;19.40;64.50;;;;;;4997180;28;20128;-51
2023/09/24 04:32:47;;;;;;;1.65;0.90;;;19.40;64.60;;;;;;5001554;28;20089;-54
2023/09/24 04:35:12;;;;;;;1.27;0.90;;;19.40;64.50;;;;;;4993047;28;20141;-49
2023/09/24 04:37:39;;;;;;;2.08;0.80;;;19.40;64.50;;;;;;4998924;28;20042;-53
2023/09/24 04:40:07;;;;;;;1.98;0.90;;;19.50;64.40;;;;;;4995722;28;20527;-50
2023/09/24 04:42:34;;;;;;;1.13;0.88;;;19.50;64.60;;;;;;4997301;28;20037;-55
2023/09/24 04:45:00;;;;;;;2.80;0.90;;;19.50;64.50;;;;;;4993825;28;20681;-53
2023/09/24 04:47:27;;;;;;;1.45;0.93;;;19.50;64.60;;;;;;4996708;28;20038;-54
2023/09/24 04:49:52;;;;;;;1.20;1.00;;;19.40;64.20;;;;;;4999872;28;20387;-53
2023/09/24 04:52:18;;;;;;;1.17;0.93;;;19.50;64.40;;;;;;4999291;28;20026;-52
2023/09/24 04:54:45;;;;;;;1.63;0.82;;;19.50;64.50;;;;;;5001627;28;20050;-56
2023/09/24 04:57:11;;;;;;;1.38;0.88;;;19.50;64.30;;;;;;4988925;28;20061;-53
2023/09/24 04:59:36;;;;;;;1.38;0.85;;;19.50;64.40;;;;;;4998653;28;20068;-52
2023/09/24 05:02:02;;;;;;;1.52;0.90;;;19.50;65.10;;;;;;4980239;28;20055;-56
2023/09/24 05:04:28;;;;;;;1.55;0.98;;;19.50;64.30;;;;;;4979189;28;20045;-55
2023/09/24 05:06:54;;;;;;;1.50;0.93;;;19.50;64.40;;;;;;4995840;28;20073;-53
2023/09/24 05:09:20;;;;;;;1.20;1.00;;;19.50;64.30;;;;;;4992705;28;20038;-56
2023/09/24 05:11:46;;;;;;;1.27;1.05;;;19.50;64.20;;;;;;4995918;28;20041;-52
2023/09/24 05:14:11;;;;;;;2.38;1.00;;;19.50;64.30;;;;;;4993139;28;20041;-50
2023/09/24 05:16:37;;;;;;;1.98;0.80;;;19.50;64.20;;;;;;4994795;28;20030;-51
2023/09/24 05:19:03;;;;;;;1.30;0.90;;;19.50;64.10;;;;;;4999402;28;20026;-52
2023/09/24 05:21:29;;;;;;;1.67;1.05;;;19.50;64.30;;;;;;4998436;28;20030;-53
2023/09/24 05:23:54;;;;;;;2.20;1.05;;;19.50;64.30;;;;;;4999643;28;20039;-52
2023/09/24 05:26:20;;;;;;;1.27;1.13;;;19.50;64.30;;;;;;4996640;28;20504;-50
2023/09/24 05:28:46;;;;;;;2.20;0.88;;;19.50;64.30;;;;;;4981852;28;20050;-54
2023/09/24 05:31:12;;;;;;;2.33;0.95;;;19.50;64.10;;;;;;4983683;28;20061;-51
2023/09/24 05:33:38;;;;;;;1.65;0.98;;;19.50;63.70;;;;;;4995296;28;20030;-50
2023/09/24 05:36:04;;;;;;;0.95;0.82;;;19.50;64.40;;;;;;4995518;28;20029;-53
2023/09/24 05:38:30;;;;;;;1.30;0.80;;;19.60;64.20;;;;;;4995980;28;20091;-51
2023/09/24 05:40:56;;;;;;;1.40;1.10;;;19.60;64.10;;;;;;4996381;28;20053;-55
2023/09/24 05:43:22;;;;;;;1.65;0.80;;;19.60;64.20;;;;;;4995985;28;20038;-50
2023/09/24 05:45:49;;;;;;;1.70;1.02;;;19.60;64.20;;;;;;4995399;28;20088;-52
2023/09/24 05:48:15;;;;;;;2.17;0.80;;;19.60;64.10;;;;;;4998163;28;20049;-51
2023/09/24 05:50:45;;;;;;;0.85;0.70;;;19.60;64.20;;;;;;4977336;28;20105;-52
2023/09/24 05:53:15;;;;;;;1.30;0.70;;;19.60;64.10;;;;;;4982342;28;20030;-52
2023/09/24 05:55:54;;;;;;;1.58;0.95;;;19.60;64.00;;;;;;4994840;28;20026;-53
2023/09/24 05:58:20;;;;;;;2.08;1.10;;;19.60;64.00;;;;;;4997287;28;20030;-51
2023/09/24 06:00:46;;;;;;;0.90;0.70;;;19.60;64.20;;;;;;4980511;28;20495;-52
2023/09/24 06:03:13;;;;;;;1.77;0.90;;;19.60;64.00;;;;;;4996635;28;20065;-54
2023/09/24 06:05:39;;;;;;;1.42;0.90;;;19.60;64.00;;;;;;4996875;28;20130;-54
2023/09/24 06:08:05;;;;;;;1.15;0.75;;;19.60;64.20;;;;;;4996448;28;20141;-52
2023/09/24 06:10:31;;;;;;;1.55;1.10;;;19.60;64.10;;;;;;4997174;28;20034;-52
2023/09/24 06:12:57;;;;;;;1.52;0.90;;;19.60;63.80;;;;;;4995923;28;20049;-53
2023/09/24 06:15:23;;;;;;;2.25;1.10;;;19.60;64.20;;;;;;4995853;28;20038;-54
2023/09/24 06:17:51;;;;;;;1.85;1.25;;;19.60;64.00;;;;;;5000839;28;20034;-53
2023/09/24 06:20:17;;;;;;;2.95;1.08;;;19.60;64.00;;;;;;4999415;28;20027;-51
2023/09/24 06:22:45;;;;;;;3.72;1.10;;;19.60;63.80;;;;;;5000164;28;20494;-51
2023/09/24 06:25:11;;;;;;;3.92;1.13;;;19.70;64.00;;;;;;4998319;28;20030;-53
2023/09/24 06:27:37;;;;;;;5.15;1.67;;;19.70;64.00;;;;;;4996919;28;20105;-52
2023/09/24 06:30:04;;;;;;;3.08;0.82;;;19.70;64.10;;;;;;4997210;28;20135;-51
2023/09/24 06:32:30;;;;;;;2.38;1.08;;;19.70;64.30;;;;;;4996130;28;20041;-51
2023/09/24 06:34:55;;;;;;;6.13;1.10;;;19.70;64.30;;;;;;4994797;28;20030;-54
2023/09/24 06:37:21;;;;;;;2.75;1.00;;;19.70;64.50;;;;;;4994280;28;20109;-53
2023/09/24 06:39:46;;;;;;;3.25;1.08;;;19.70;64.50;;;;;;4993028;28;20037;-55
2023/09/24 06:42:12;;;;;;;2.42;1.20;;;19.70;64.40;;;;;;4992685;28;20042;-50
2023/09/24 06:44:37;;;;;;;3.55;1.27;;;19.70;64.50;;;;;;4993095;28;20038;-52
2023/09/24 06:47:03;;;;;;;3.38;1.15;;;19.70;64.40;;;;;;4998330;28;20057;-50
2023/09/24 06:49:28;;;;;;;3.05;1.23;;;19.70;64.30;;;;;;4999276;28;20129;-52
2023/09/24 06:51:54;;;;;;;3.03;1.05;;;19.70;64.30;;;;;;4998652;28;20048;-50
2023/09/24 06:54:20;;;;;;;3.90;1.00;;;19.70;64.30;;;;;;4996316;28;20031;-52
2023/09/24 06:56:46;;;;;;;1.55;0.88;;;19.70;64.30;;;;;;4981396;28;20530;-61
2023/09/24 06:59:11;;;;;;;1.98;1.00;;;19.70;64.30;;;;;;4996297;28;20026;-52
2023/09/24 07:01:37;;;;;;;3.38;0.90;;;19.70;64.20;;;;;;4995613;28;20034;-53
2023/09/24 07:04:05;;;;;;;1.70;1.15;;;19.70;64.30;;;;;;4992627;28;20026;-50
2023/09/24 07:06:32;;;;;;;1.58;0.90;;;19.70;64.20;;;;;;4991248;28;20126;-51
2023/09/24 07:08:58;;;;;;;2.75;1.17;;;19.70;64.20;;;;;;4975837;28;20038;-52
2023/09/24 07:11:28;;;;;;;2.22;1.10;;;19.70;64.20;;;;;;4993493;28;20034;-50
2023/09/24 07:13:54;;;;;;;2.40;1.20;;;19.70;64.10;;;;;;4981968;28;20030;-50
2023/09/24 07:16:22;;;;;;;2.80;1.45;;;19.70;64.20;;;;;;4996636;28;20522;-52
2023/09/24 07:18:49;;;;;;;4.57;2.35;;;19.70;64.10;;;;;;4997288;28;20057;-54
2023/09/24 07:21:15;;;;;;;3.25;2.10;;;19.70;64.30;;;;;;4998535;28;20110;-53
2023/09/24 07:23:41;;;;;;;8.88;2.85;;;19.70;64.60;;;;;;4995010;28;20026;-53
2023/09/24 07:26:08;;;;;;;3.85;2.08;;;19.60;64.50;;;;;;4995447;28;20034;-51
2023/09/24 07:28:34;;;;;;;10.98;3.33;;;19.60;63.70;;;;;;4993649;28;20037;-53
2023/09/24 07:31:00;;;;;;;5.75;3.85;;;19.50;64.00;;;;;;4995309;28;20121;-50
2023/09/24 07:33:26;;;;;;;4.53;3.08;;;19.50;63.70;;;;;;4994699;28;20145;-57
2023/09/24 07:35:52;;;;;;;4.90;2.30;;;19.50;63.00;;;;;;4991840;28;20091;-52
2023/09/24 07:38:18;;;;;;;3.83;2.13;;;19.50;62.20;;;;;;4993365;28;20034;-53
2023/09/24 07:40:44;;;;;;;7.35;3.65;;;19.40;61.70;;;;;;4993164;28;20091;-55
2023/09/24 07:43:10;;;;;;;9.40;4.88;;;19.30;61.50;;;;;;4995214;28;20041;-54
2023/09/24 07:45:36;;;;;;;9.23;5.15;;;19.20;61.60;;;;;;4999507;28;20038;-53
2023/09/24 07:48:06;;;;;;;11.68;7.13;;;19.30;61.40;;;;;;4997593;28;20029;-50
2023/09/24 07:50:32;;;;;;;12.63;7.43;;;19.30;61.60;;;;;;4997013;28;20100;-50
2023/09/24 07:52:57;;;;;;;13.68;7.68;;;19.40;61.80;;;;;;4995784;28;20115;-49
2023/09/24 07:55:23;;;;;;;11.68;6.53;;;19.40;62.20;;;;;;4978107;28;20083;-51
2023/09/24 07:57:48;;;;;;;10.48;6.05;;;19.30;62.20;;;;;;4994677;28;20034;-55
2023/09/24 08:00:16;;;;;;;9.38;5.03;;;19.30;62.40;;;;;;4993428;28;20410;-49
2023/09/24 08:02:44;;;;;;;8.80;4.50;;;19.40;62.40;;;;;;4973285;28;20109;-51
2023/09/24 08:05:09;;;;;;;6.82;3.10;;;19.30;62.20;;;;;;4973406;28;20030;-53
2023/09/24 08:07:36;;;;;;;7.20;3.72;;;19.30;62.00;;;;;;4992162;28;20209;-53
2023/09/24 08:10:01;;;;;;;5.72;2.83;;;19.30;62.30;;;;;;4971971;28;20444;-51
2023/09/24 08:12:27;;;;;;;4.38;2.20;;;19.30;62.40;;;;;;4990669;28;20030;-54
2023/09/24 08:14:53;;;;;;;4.40;2.22;;;19.30;61.70;;;;;;5013593;23;20390;-54
2023/09/24 08:17:18;;;;;;;4.97;2.25;;;19.30;61.50;;;;;;5017202;28;20462;-51
2023/09/24 08:19:44;;;;;;;2.85;2.20;;;19.40;61.60;;;;;;5017421;28;20022;-54
2023/09/24 08:22:09;;;;;;;3.97;2.17;;;19.40;61.40;;;;;;5014806;28;20033;-54
2023/09/24 08:24:36;;;;;;;2.80;1.80;;;19.40;61.60;;;;;;4999524;28;21791;-51
2023/09/24 08:27:02;;;;;;;3.03;1.90;;;19.50;61.80;;;;;;5016721;28;20172;-54
2023/09/24 08:29:28;;;;;;;4.18;1.90;;;19.50;61.90;;;;;;5017818;28;20690;-55
2023/09/24 08:31:54;;;;;;;3.17;1.98;;;19.50;62.00;;;;;;5016957;28;20109;-51
2023/09/24 08:34:19;;;;;;;2.55;1.73;;;19.50;62.30;;;;;;5011301;28;20479;-52
2023/09/24 08:36:45;;;;;;;3.85;1.70;;;19.50;62.50;;;;;;5015597;28;20471;-57
2023/09/24 08:39:11;;;;;;;3.45;1.50;;;19.50;62.60;;;;;;5003357;28;20459;-48
2023/09/24 08:41:42;;;;;;;3.25;1.73;;;19.50;62.70;;;;;;5005994;28;20037;-56
2023/09/24 08:44:13;;;;;;;3.45;1.60;;;19.50;62.80;;;;;;5023781;28;20037;-52
2023/09/24 08:46:39;;;;;;;3.45;1.45;;;19.50;62.60;;;;;;5021044;28;20123;-54
2023/09/24 08:49:05;;;;;;;4.93;1.95;;;19.50;62.40;;;;;;5020823;28;20540;-53
2023/09/24 08:51:33;;;;;;;2.15;1.40;;;19.50;62.50;;;;;;5021693;28;20038;-52
2023/09/24 08:54:00;;;;;;;3.45;1.35;;;19.50;62.40;;;;;;5005157;28;20549;-53
2023/09/24 08:56:26;;;;;;;2.92;1.55;;;19.50;62.60;;;;;;5020212;28;20061;-54
2023/09/24 08:58:53;;;;;;;3.42;1.70;;;19.50;62.60;;;;;;5020953;28;20060;-56
2023/09/24 09:01:18;;;;;;;5.55;1.33;;;19.50;62.50;;;;;;5019468;28;20091;-54
2023/09/24 09:03:44;;;;;;;2.00;1.52;;;19.50;62.60;;;;;;5017537;28;20427;-55
2023/09/24 09:06:11;;;;;;;3.40;1.50;;;19.50;62.60;;;;;;5015271;28;20038;-54
2023/09/24 09:08:50;;;;;;;4.10;1.42;;;19.50;62.70;;;;;;5016629;28;20054;-52
2023/09/24 09:11:17;;;;;;;3.13;1.70;;;19.50;62.90;;;;;;5011748;28;20050;-52
2023/09/24 09:13:44;;;;;;;3.50;1.33;;;19.50;62.90;;;;;;5011534;28;20040;-55
2023/09/24 09:16:09;;;;;;;3.92;1.35;;;19.50;62.90;;;;;;5020047;28;20426;-54
2023/09/24 09:18:35;;;;;;;2.00;1.27;;;19.50;62.90;;;;;;5021357;28;20029;-55
2023/09/24 09:21:00;;;;;;;1.85;1.60;;;19.50;63.00;;;;;;5021596;28;20022;-56
2023/09/24 09:23:36;;;;;;;2.85;1.55;;;19.60;63.10;;;;;;5020093;28;20048;-53
2023/09/24 09:26:03;;;;;;;2.47;1.90;;;19.50;63.60;;;;;;4998859;28;20034;-55
2023/09/24 09:28:31;;;;;;;4.32;1.42;;;19.50;64.40;;;;;;5017873;28;20041;-53
2023/09/24 09:31:00;;;;;;;3.75;1.70;;;19.50;64.70;;;;;;5018167;28;20030;-55
2023/09/24 09:33:33;;;;;;;4.45;1.55;;;19.50;64.40;;;;;;5018454;28;20656;-52
2023/09/24 09:35:59;;;;;;;4.28;1.70;;;19.40;64.80;;;;;;5016706;28;20141;-54
2023/09/24 09:38:27;;;;;;;5.47;2.25;;;19.40;64.90;;;;;;5014236;28;20117;-55
2023/09/24 09:40:57;;;;;;;5.68;1.92;;;19.40;64.70;;;;;;5018154;28;20040;-52
2023/09/24 09:43:25;;;;;;;5.45;2.10;;;19.40;64.70;;;;;;5014953;28;20084;-54
2023/09/24 09:45:57;;;;;;;5.03;2.05;;;19.30;64.00;;;;;;5014300;28;20395;-54
2023/09/24 09:48:30;;;;;;;10.77;8.63;;;19.20;63.80;;;;;;4999502;28;20132;-53
2023/09/24 09:51:07;;;;;;;44.75;34.70;;;19.20;64.40;;;;;;5018305;28;20076;-52
2023/09/24 09:53:34;;;;;;;45.00;32.40;;;19.30;64.50;;;;;;5018252;28;20042;-53
2023/09/24 09:56:07;;;;;;;40.17;30.17;;;19.40;64.80;;;;;;5018831;28;20037;-54
2023/09/24 09:58:37;;;;;;;33.67;26.13;;;19.40;64.70;;;;;;5017114;28;20221;-53
2023/09/24 10:01:05;;;;;;;64.75;30.02;;;19.40;65.40;;;;;;5020605;28;20030;-54
2023/09/24 10:03:38;;;;;;;144.15;55.63;;;19.40;65.70;;;;;;5017060;28;20437;-51
2023/09/24 10:06:06;;;;;;;290.98;111.28;;;19.50;66.30;;;;;;4999101;28;20095;-52
2023/09/24 10:08:48;;;;;;;290.92;110.35;;;19.50;67.80;;;;;;5010208;28;20042;-52
2023/09/24 10:11:32;;;;;;;183.75;70.22;;;19.50;68.30;;;;;;5006954;28;20033;-51
2023/09/24 10:14:01;;;;;;;136.60;56.50;;;19.50;68.00;;;;;;5014752;28;20038;-50
2023/09/24 10:16:30;;;;;;;118.65;50.83;;;19.50;67.10;;;;;;4998045;28;20040;-56
2023/09/24 10:19:07;;;;;;;61.60;27.15;;;19.50;66.90;;;;;;5019069;28;20032;-56
2023/09/24 10:21:32;;;;;;;41.22;15.15;;;19.40;65.60;;;;;;5020393;28;20108;-51
2023/09/24 10:24:18;;;;;;;44.20;17.92;;;19.40;65.30;;;;;;5020062;28;20125;-55
2023/09/24 10:27:03;;;;;;;22.38;10.88;;;19.40;65.30;;;;;;5005117;28;20382;-55
2023/09/24 10:29:49;;;;;;;14.50;6.80;;;19.40;65.10;;;;;;5019757;28;20438;-56
2023/09/24 10:32:20;;;;;;;8.63;3.88;;;19.40;65.00;;;;;;5018789;28;20117;-53
2023/09/24 10:34:51;;;;;;;7.45;4.22;;;19.30;64.50;;;;;;5017887;28;20029;-51
2023/09/24 10:37:21;;;;;;;18.65;9.85;;;19.30;64.70;;;;;;5020313;28;20143;-51
2023/09/24 10:40:05;;;;;;;102.72;60.92;;;19.40;64.90;;;;;;5022935;28;20030;-55
2023/09/24 10:42:31;;;;;;;89.05;50.42;;;19.40;66.00;;;;;;5030273;28;20029;-53
2023/09/24 10:45:12;;;;;;;54.75;34.05;;;19.50;66.20;;;;;;5025789;28;20117;-52
2023/09/24 10:47:46;;;;;;;30.75;20.88;;;19.50;65.70;;;;;;5018629;28;20033;-54
2023/09/24 10:50:19;;;;;;;26.83;19.08;;;19.50;65.90;;;;;;5021485;28;20452;-56
2023/09/24 10:52:51;;;;;;;22.23;15.88;;;19.50;66.70;;;;;;5018553;28;20041;-55
2023/09/24 10:55:19;;;;;;;18.55;13.85;;;19.50;67.70;;;;;;5016558;28;20025;-56
2023/09/24 10:57:53;;;;;;;22.00;14.43;;;19.50;67.90;;;;;;5013853;28;20100;-52
2023/09/24 11:00:23;;;;;;;17.45;11.52;;;19.60;68.50;;;;;;5017648;28;20104;-57
2023/09/24 11:03:00;;;;;;;17.85;12.25;;;19.60;68.20;;;;;;5016242;28;20056;-57
2023/09/24 11:05:27;;;;;;;13.50;9.43;;;19.60;68.80;;;;;;5018807;28;20038;-54
2023/09/24 11:07:53;;;;;;;12.80;8.00;;;19.60;68.40;;;;;;5018721;28;20033;-55
2023/09/24 11:10:20;;;;;;;11.90;7.32;;;19.60;68.00;;;;;;5020043;28;20033;-54
2023/09/24 11:12:50;;;;;;;10.25;5.65;;;19.70;68.90;;;;;;5022290;28;20037;-53
2023/09/24 11:15:18;;;;;;;11.45;4.88;;;19.70;68.40;;;;;;5009791;28;20034;-55
2023/09/24 11:17:47;;;;;;;7.63;3.95;;;19.70;68.40;;;;;;5020575;28;20105;-55
2023/09/24 11:20:13;;;;;;;6.03;3.03;;;19.70;68.00;;;;;;5018278;28;20030;-53
2023/09/24 11:22:40;;;;;;;5.20;3.08;;;19.70;68.20;;;;;;5017124;28;20029;-53
2023/09/24 11:25:09;;;;;;;5.00;3.45;;;19.70;67.90;;;;;;5014956;28;20049;-51
2023/09/24 11:27:47;;;;;;;5.32;3.13;;;19.70;67.70;;;;;;5015936;28;20025;-53
2023/09/24 11:30:17;;;;;;;6.88;3.10;;;19.70;68.20;;;;;;4997462;28;20083;-51
2023/09/24 11:32:44;;;;;;;4.13;2.53;;;19.70;66.90;;;;;;5019279;28;20114;-52
2023/09/24 11:35:14;;;;;;;4.22;3.05;;;19.70;66.90;;;;;;5017993;28;20029;-53
2023/09/24 11:37:49;;;;;;;6.28;3.13;;;19.70;66.90;;;;;;5018419;28;20071;-51
2023/09/24 11:40:26;;;;;;;7.32;3.00;;;19.70;66.50;;;;;;5019091;28;21224;-54
2023/09/24 11:43:00;;;;;;;4.68;2.55;;;19.70;66.00;;;;;;5014015;28;20717;-55
2023/09/24 11:45:40;;;;;;;3.92;2.30;;;19.70;65.90;;;;;;5017209;28;20061;-55
2023/09/24 11:48:07;;;;;;;3.25;2.35;;;19.70;65.90;;;;;;5016079;28;20498;-54
2023/09/24 11:50:35;;;;;;;3.22;1.90;;;19.60;65.30;;;;;;5017969;28;20030;-53
2023/09/24 11:53:01;;;;;;;3.00;1.58;;;19.60;65.90;;;;;;5014865;28;20030;-54
2023/09/24 11:55:27;;;;;;;2.22;1.50;;;19.60;65.80;;;;;;5003780;28;20045;-55
2023/09/24 11:57:53;;;;;;;3.13;1.65;;;19.60;65.50;;;;;;5011769;28;20044;-55
2023/09/24 12:00:18;;;;;;;3.92;1.50;;;19.60;65.60;;;;;;5014445;28;20722;-62
2023/09/24 12:02:44;;;;;;;4.50;1.17;;;19.60;64.10;;;;;;5013649;28;20466;-54
2023/09/24 12:05:09;;;;;;;4.63;1.70;;;19.60;64.70;;;;;;5017952;28;20022;-54
2023/09/24 12:07:35;;;;;;;4.40;1.10;;;19.60;64.80;;;;;;4998639;28;20526;-54
2023/09/24 12:10:04;;;;;;;1.55;1.20;;;19.60;64.80;;;;;;5019740;28;20029;-55
2023/09/24 12:12:30;;;;;;;3.85;1.38;;;19.60;64.80;;;;;;5019671;28;20034;-53
2023/09/24 12:14:55;;;;;;;4.28;2.15;;;19.60;65.10;;;;;;5021134;28;20671;-56
2023/09/24 12:17:21;;;;;;;4.68;1.80;;;19.60;65.20;;;;;;5022011;28;20029;-52
2023/09/24 12:19:47;;;;;;;8.18;2.10;;;19.60;66.00;;;;;;5020269;28;20026;-50
2023/09/24 12:22:14;;;;;;;5.20;1.60;;;19.60;66.30;;;;;;4999743;28;20026;-53
2023/09/24 12:24:39;;;;;;;4.53;1.65;;;19.60;66.80;;;;;;5019459;28;20041;-51
2023/09/24 12:27:05;;;;;;;1.75;1.02;;;19.70;66.80;;;;;;5021357;28;20037;-54
2023/09/24 12:29:31;;;;;;;4.50;1.15;;;19.70;65.80;;;;;;4999453;28;20043;-51
2023/09/24 12:31:57;;;;;;;4.43;1.35;;;19.70;64.80;;;;;;5000346;28;20029;-56
2023/09/24 12:34:22;;;;;;;3.05;1.10;;;19.70;63.40;;;;;;5016698;28;20128;-55
2023/09/24 12:36:48;;;;;;;2.67;1.52;;;19.60;64.20;;;;;;5023007;28;20152;-54
2023/09/24 12:39:17;;;;;;;3.53;1.55;;;19.40;60.50;;;;;;5023543;28;20037;-56
2023/09/24 12:41:43;;;;;;;7.05;1.48;;;19.40;63.30;;;;;;5019585;28;20025;-51
2023/09/24 12:44:09;;;;;;;2.13;1.20;;;19.30;62.40;;;;;;5017813;28;20041;-53
2023/09/24 12:46:38;;;;;;;4.22;1.33;;;19.30;63.50;;;;;;5018683;28;20159;-51
2023/09/24 12:49:04;;;;;;;5.25;1.10;;;19.40;59.80;;;;;;5017517;28;20044;-54